createdAt,value
2023-04-28T00:02:02.160Z,99367.69
2023-04-28T00:04:29.220Z,99368.92
2023-04-28T00:06:56.135Z,99367.73
2023-04-28T00:09:22.850Z,99367.26
2023-04-28T00:11:49.662Z,99368.04
2023-04-28T00:14:16.879Z,99373.13
2023-04-28T00:16:44.047Z,99375.40
2023-04-28T00:19:10.900Z,99380.67
2023-04-28T00:21:37.564Z,99381.66
2023-04-28T00:24:04.517Z,99386.91
2023-04-28T00:26:31.202Z,99389.46
2023-04-28T00:28:57.895Z,99394.83
2023-04-28T00:31:24.756Z,99396.77
2023-04-28T00:33:51.481Z,99398.82
2023-04-28T00:36:18.468Z,99397.92
2023-04-28T00:38:45.493Z,99401.61
2023-04-28T00:41:12.505Z,99396.29
2023-04-28T00:43:49.051Z,99398.30
2023-04-28T00:46:24.632Z,99408.88
2023-04-28T00:48:51.419Z,99407.73
2023-04-28T00:51:18.272Z,99411.59
2023-04-28T00:53:45.193Z,99419.12
2023-04-28T00:56:12.712Z,99421.17
2023-04-28T00:58:39.442Z,99426.77
2023-04-28T01:01:08.133Z,99434.33
2023-04-28T01:03:39.814Z,99432.25
2023-04-28T01:06:08.229Z,99434.10
2023-04-28T01:08:36.171Z,99429.70
2023-04-28T01:11:03.905Z,99428.48
2023-04-28T01:13:49.422Z,99429.68
2023-04-28T01:16:16.757Z,99433.70
2023-04-28T01:18:47.150Z,99432.39
2023-04-28T01:21:13.909Z,99437.49
2023-04-28T01:23:41.346Z,99442.13
2023-04-28T01:26:08.118Z,99440.38
2023-04-28T01:28:34.871Z,99436.65
2023-04-28T01:31:02.100Z,99438.66
2023-04-28T01:33:28.834Z,99435.67
2023-04-28T01:35:59.205Z,99438.25
2023-04-28T01:38:25.939Z,99441.55
2023-04-28T01:40:54.851Z,99450.61
2023-04-28T01:43:21.515Z,99451.05
2023-04-28T01:45:48.264Z,99448.64
2023-04-28T01:48:15.154Z,99451.61
2023-04-28T01:50:41.864Z,99448.13
2023-04-28T01:53:08.680Z,99445.84
2023-04-28T01:55:35.641Z,99443.08
2023-04-28T01:58:02.373Z,99443.87
2023-04-28T02:00:29.740Z,99446.61
2023-04-28T02:02:56.668Z,99448.27
2023-04-28T02:05:23.557Z,99447.58
2023-04-28T02:07:50.943Z,99449.00
2023-04-28T02:10:17.761Z,99450.60
2023-04-28T02:12:44.449Z,99453.11
2023-04-28T02:15:11.391Z,99456.35
2023-04-28T02:17:38.206Z,99456.75
2023-04-28T02:20:05.458Z,99457.72
2023-04-28T02:22:32.465Z,99458.56
2023-04-28T02:24:59.239Z,99461.34
2023-04-28T02:27:26.301Z,99460.73
2023-04-28T02:29:53.231Z,99459.08
2023-04-28T02:32:21.811Z,99464.98
2023-04-28T02:34:55.417Z,99464.81
2023-04-28T02:37:22.965Z,99465.37
2023-04-28T02:39:50.492Z,99467.13
2023-04-28T02:42:17.211Z,99467.49
2023-04-28T02:44:43.912Z,99465.80
2023-04-28T02:47:10.708Z,99471.39
2023-04-28T02:49:37.605Z,99474.49
2023-04-28T02:52:04.770Z,99480.19
2023-04-28T02:54:32.945Z,99479.99
2023-04-28T02:56:59.838Z,99480.27
2023-04-28T02:59:27.254Z,99484.68
2023-04-28T03:01:53.986Z,99491.05
2023-04-28T03:04:21.102Z,99493.02
2023-04-28T03:06:48.203Z,99498.56
2023-04-28T03:09:15.875Z,99504.67
2023-04-28T03:11:42.603Z,99506.41
2023-04-28T03:14:09.294Z,99513.60
2023-04-28T03:16:36.129Z,99514.88
2023-04-28T03:19:03.639Z,99517.98
2023-04-28T03:21:30.419Z,99521.30
2023-04-28T03:23:57.140Z,99520.11
2023-04-28T03:26:24.593Z,99525.50
2023-04-28T03:28:51.815Z,99528.95
2023-04-28T03:31:18.570Z,99533.69
2023-04-28T03:33:47.176Z,99536.95
2023-04-28T03:36:14.445Z,99540.64
2023-04-28T03:38:41.692Z,99545.05
2023-04-28T03:41:08.514Z,99546.90
2023-04-28T03:43:37.948Z,99548.08
2023-04-28T03:46:15.306Z,99550.66
2023-04-28T03:48:42.166Z,99551.22
2023-04-28T03:51:08.985Z,99548.40
2023-04-28T03:53:35.648Z,99553.92
2023-04-28T03:56:02.406Z,99552.72
2023-04-28T03:58:29.643Z,99551.77
2023-04-28T04:00:56.488Z,99556.61
2023-04-28T04:03:26.523Z,99556.47
2023-04-28T04:05:55.835Z,99558.48
2023-04-28T04:08:22.829Z,99561.45
2023-04-28T04:10:49.737Z,99561.71
2023-04-28T04:13:16.532Z,99563.52
2023-04-28T04:15:43.692Z,99564.72
2023-04-28T04:18:11.299Z,99564.52
2023-04-28T04:20:58.113Z,99561.42
2023-04-28T04:23:24.841Z,99561.26
2023-04-28T04:25:51.706Z,99557.87
2023-04-28T04:28:18.555Z,99554.32
2023-04-28T04:30:45.201Z,99559.18
2023-04-28T04:33:12.074Z,99556.27
2023-04-28T04:35:38.865Z,99556.02
2023-04-28T04:38:05.651Z,99553.33
2023-04-28T04:40:32.359Z,99555.86
2023-04-28T04:42:59.347Z,99559.53
2023-04-28T04:45:27.830Z,99558.42
2023-04-28T04:47:54.909Z,99558.90
2023-04-28T04:50:21.746Z,99562.64
2023-04-28T04:52:48.414Z,99562.98
2023-04-28T04:55:15.267Z,99562.15
2023-04-28T04:57:42.358Z,99564.98
2023-04-28T05:00:29.491Z,99568.43
2023-04-28T05:02:56.675Z,99573.02
2023-04-28T05:05:23.642Z,99574.48
2023-04-28T05:08:02.444Z,99577.19
2023-04-28T05:10:29.419Z,99578.73
2023-04-28T05:12:56.151Z,99582.16
2023-04-28T05:15:22.976Z,99582.16
2023-04-28T05:18:11.429Z,99577.21
2023-04-28T05:20:38.321Z,99576.17
2023-04-28T05:23:05.976Z,99575.78
2023-04-28T05:25:32.829Z,99572.37
2023-04-28T05:28:04.863Z,99573.36
2023-04-28T05:30:31.968Z,99574.58
2023-04-28T05:32:58.983Z,99578.56
2023-04-28T05:35:26.298Z,99582.71
2023-04-28T05:37:53.435Z,99584.85
2023-04-28T05:40:20.795Z,99586.20
2023-04-28T05:42:47.639Z,99585.98
2023-04-28T05:45:15.207Z,99583.02
2023-04-28T05:47:42.175Z,99582.86
2023-04-28T05:50:09.969Z,99584.65
2023-04-28T05:52:36.694Z,99586.79
2023-04-28T05:55:03.803Z,99578.02
2023-04-28T05:57:33.975Z,99576.42
2023-04-28T06:00:09.290Z,99571.52
2023-04-28T06:02:39.349Z,99574.95
2023-04-28T06:05:07.548Z,99573.75
2023-04-28T06:07:34.473Z,99568.15
2023-04-28T06:10:01.201Z,99565.20
2023-04-28T06:12:27.902Z,99565.81
2023-04-28T06:14:55.538Z,99566.58
2023-04-28T06:17:22.473Z,99560.25
2023-04-28T06:19:51.307Z,99561.12
2023-04-28T06:22:18.040Z,99558.31
2023-04-28T06:24:47.925Z,99560.89
2023-04-28T06:27:18.473Z,99565.39
2023-04-28T06:29:45.338Z,99564.45
2023-04-28T06:32:12.199Z,99569.51
2023-04-28T06:34:39.055Z,99568.83
2023-04-28T06:37:06.573Z,99574.00
2023-04-28T06:39:33.615Z,99569.55
2023-04-28T06:42:02.404Z,99569.73
2023-04-28T06:44:29.518Z,99570.92
2023-04-28T06:46:56.574Z,99568.92
2023-04-28T06:49:23.333Z,99566.85
2023-04-28T06:51:50.203Z,99574.58
2023-04-28T06:54:17.137Z,99567.80
2023-04-28T06:56:44.231Z,99576.59
2023-04-28T06:59:10.994Z,99571.90
2023-04-28T07:01:37.742Z,99575.78
2023-04-28T07:04:04.847Z,99574.33
2023-04-28T07:06:32.495Z,99571.40
2023-04-28T07:08:59.303Z,99571.91
2023-04-28T07:11:26.311Z,99569.02
2023-04-28T07:13:52.947Z,99576.67
2023-04-28T07:16:19.751Z,99573.38
2023-04-28T07:18:46.682Z,99574.92
2023-04-28T07:21:13.312Z,99574.09
2023-04-28T07:23:41.019Z,99581.15
2023-04-28T07:26:08.273Z,99582.02
2023-04-28T07:28:35.298Z,99582.96
2023-04-28T07:31:02.456Z,99580.90
2023-04-28T07:33:29.174Z,99581.05
2023-04-28T07:35:55.993Z,99583.60
2023-04-28T07:38:22.711Z,99580.43
2023-04-28T07:40:49.441Z,99583.38
2023-04-28T07:43:16.291Z,99586.21
2023-04-28T07:45:45.680Z,99584.10
2023-04-28T07:48:12.783Z,99586.09
2023-04-28T07:50:39.583Z,99586.34
2023-04-28T07:53:06.328Z,99580.45
2023-04-28T07:55:33.184Z,99586.73
2023-04-28T07:57:59.916Z,99586.40
2023-04-28T08:00:26.900Z,99589.34
2023-04-28T08:02:53.739Z,99590.48
2023-04-28T08:05:21.008Z,99590.89
2023-04-28T08:07:47.918Z,99582.18
2023-04-28T08:10:14.597Z,99584.17
2023-04-28T08:12:41.422Z,99586.48
2023-04-28T08:15:09.606Z,99580.04
2023-04-28T08:17:36.586Z,99577.70
2023-04-28T08:20:03.673Z,99582.80
2023-04-28T08:22:30.659Z,99579.85
2023-04-28T08:24:57.336Z,99582.86
2023-04-28T08:27:25.785Z,99589.75
2023-04-28T08:29:52.839Z,99592.30
2023-04-28T08:32:19.525Z,99591.56
2023-04-28T08:34:46.183Z,99583.08
2023-04-28T08:37:13.541Z,99576.63
2023-04-28T08:39:40.297Z,99581.45
2023-04-28T08:42:07.036Z,99587.33
2023-04-28T08:44:41.046Z,99582.95
2023-04-28T08:47:13.160Z,99584.47
2023-04-28T08:52:21.899Z,99587.92
2023-04-28T08:54:48.564Z,99582.90
2023-04-28T08:57:15.280Z,99584.90
2023-04-28T08:59:42.067Z,99579.27
2023-04-28T09:02:09.370Z,99581.30
2023-04-28T09:04:36.806Z,99583.16
2023-04-28T09:07:03.762Z,99579.67
2023-04-28T09:09:34.197Z,99575.77
2023-04-28T09:12:04.063Z,99576.61
2023-04-28T09:14:33.086Z,99577.57
2023-04-28T09:16:59.790Z,99578.80
2023-04-28T09:19:36.722Z,99584.29
2023-04-28T09:22:10.950Z,99583.44
2023-04-28T09:24:50.450Z,99581.66
2023-04-28T09:27:18.726Z,99582.95
2023-04-28T09:29:52.809Z,99581.20
2023-04-28T09:32:23.345Z,99581.90
2023-04-28T09:34:51.461Z,99574.29
2023-04-28T09:37:20.081Z,99574.98
2023-04-28T09:39:47.810Z,99571.64
2023-04-28T09:42:39.215Z,99567.74
2023-04-28T09:45:13.680Z,99565.13
2023-04-28T09:47:41.837Z,99559.02
2023-04-28T09:50:11.893Z,99562.58
2023-04-28T09:52:38.585Z,99565.42
2023-04-28T09:55:07.266Z,99564.92
2023-04-28T09:57:34.810Z,99567.11
2023-04-28T10:00:02.263Z,99563.30
2023-04-28T10:02:43.208Z,99562.76
2023-04-28T10:05:11.719Z,99557.76
2023-04-28T10:07:39.218Z,99550.88
2023-04-28T10:10:07.652Z,99557.97
2023-04-28T10:12:35.013Z,99561.43
2023-04-28T10:15:02.005Z,99552.61
2023-04-28T10:17:29.689Z,99553.95
2023-04-28T10:19:57.217Z,99562.08
2023-04-28T10:22:43.986Z,99564.77
2023-04-28T10:25:32.755Z,99567.39
2023-04-28T10:27:59.779Z,99561.60
2023-04-28T10:30:29.571Z,99561.63
2023-04-28T10:33:06.475Z,99567.06
2023-04-28T10:35:36.319Z,99573.89
2023-04-28T10:38:13.730Z,99574.02
2023-04-28T10:40:44.785Z,99573.91
2023-04-28T10:43:39.588Z,99569.23
2023-04-28T10:46:08.106Z,99570.64
2023-04-28T10:48:35.239Z,99574.91
2023-04-28T10:51:04.931Z,99569.33
2023-04-28T10:53:44.781Z,99567.80
2023-04-28T10:56:16.957Z,99563.49
2023-04-28T10:58:46.228Z,99573.46
2023-04-28T11:01:22.661Z,99571.12
2023-04-28T11:04:07.545Z,99564.83
2023-04-28T11:06:36.366Z,99560.00
2023-04-28T11:09:12.271Z,99559.27
2023-04-28T11:11:40.685Z,99562.83
2023-04-28T11:14:20.244Z,99559.34
2023-04-28T11:16:52.181Z,99558.21
2023-04-28T11:19:24.517Z,99553.98
2023-04-28T11:21:51.938Z,99551.99
2023-04-28T11:24:19.934Z,99558.16
2023-04-28T11:26:46.954Z,99553.98
2023-04-28T11:29:15.096Z,99553.99
2023-04-28T11:31:49.264Z,99547.73
2023-04-28T11:34:19.592Z,99539.40
2023-04-28T11:36:46.253Z,99534.80
2023-04-28T11:39:13.382Z,99533.02
2023-04-28T11:41:43.931Z,99543.96
2023-04-28T11:44:18.269Z,99549.47
2023-04-28T11:46:55.793Z,99549.44
2023-04-28T11:49:26.011Z,99547.94
2023-04-28T11:51:52.926Z,99540.36
2023-04-28T11:54:27.216Z,99545.77
2023-04-28T11:56:55.816Z,99543.97
2023-04-28T11:59:29.587Z,99530.21
2023-04-28T12:02:00.784Z,99540.52
2023-04-28T12:04:38.604Z,99538.42
2023-04-28T12:07:12.617Z,99538.88
2023-04-28T12:09:43.793Z,99534.23
2023-04-28T12:12:12.374Z,99531.98
2023-04-28T12:14:59.684Z,99527.64
2023-04-28T12:17:31.498Z,99534.38
2023-04-28T12:19:59.251Z,99531.46
2023-04-28T12:22:26.085Z,99518.55
2023-04-28T12:25:12.620Z,99518.53
2023-04-28T12:27:40.670Z,99521.79
2023-04-28T12:30:20.838Z,99526.49
2023-04-28T12:32:48.395Z,99530.92
2023-04-28T12:35:16.135Z,99527.60
2023-04-28T12:37:45.777Z,99535.48
2023-04-28T12:40:14.532Z,99534.13
2023-04-28T12:42:41.217Z,99533.13
2023-04-28T12:45:09.336Z,99534.86
2023-04-28T12:47:37.849Z,99532.67
2023-04-28T12:50:05.801Z,99539.38
2023-04-28T12:52:36.062Z,99536.96
2023-04-28T12:55:03.417Z,99537.63
2023-04-28T12:57:30.194Z,99541.58
2023-04-28T12:59:57.251Z,99538.70
2023-04-28T13:02:24.401Z,99540.83
2023-04-28T13:04:52.198Z,99540.27
2023-04-28T13:07:19.245Z,99533.61
2023-04-28T13:09:47.592Z,99529.63
2023-04-28T13:12:14.933Z,99520.92
2023-04-28T13:14:42.009Z,99520.72
2023-04-28T13:17:10.187Z,99520.66
2023-04-28T13:19:36.967Z,99527.98
2023-04-28T13:22:05.442Z,99524.96
2023-04-28T13:24:33.577Z,99521.30
2023-04-28T13:27:00.491Z,99521.96
2023-04-28T13:29:27.161Z,99521.29
2023-04-28T13:31:54.299Z,99521.09
2023-04-28T13:34:21.123Z,99522.84
2023-04-28T13:36:50.837Z,99518.31
2023-04-28T13:39:20.247Z,99521.95
2023-04-28T13:41:47.123Z,99523.69
2023-04-28T13:44:13.962Z,99520.64
2023-04-28T13:46:41.000Z,99524.08
2023-04-28T13:49:09.527Z,99518.36
2023-04-28T13:51:36.409Z,99518.45
2023-04-28T13:54:09.017Z,99516.27
2023-04-28T13:56:36.483Z,99516.36
2023-04-28T13:59:03.552Z,99515.63
2023-04-28T14:01:30.360Z,99512.27
2023-04-28T14:03:57.377Z,99513.65
2023-04-28T14:06:24.288Z,99516.16
2023-04-28T14:08:50.964Z,99518.09
2023-04-28T14:11:17.651Z,99519.55
2023-04-28T14:13:44.487Z,99510.81
2023-04-28T14:16:11.935Z,99512.28
2023-04-28T14:18:38.700Z,99514.48
2023-04-28T14:21:08.422Z,99517.20
2023-04-28T14:23:35.775Z,99521.30
2023-04-28T14:26:02.644Z,99521.29
2023-04-28T14:28:29.562Z,99518.85
2023-04-28T14:30:56.576Z,99513.94
2023-04-28T14:33:23.771Z,99518.81
2023-04-28T14:35:50.557Z,99509.73
2023-04-28T14:38:17.226Z,99513.31
2023-04-28T14:40:43.969Z,99514.96
2023-04-28T14:43:10.689Z,99516.27
2023-04-28T14:45:38.250Z,99513.52
2023-04-28T14:48:07.053Z,99508.64
2023-04-28T14:50:33.964Z,99510.46
2023-04-28T14:53:05.681Z,99513.07
2023-04-28T14:55:33.189Z,99514.09
2023-04-28T14:57:59.947Z,99513.80
2023-04-28T15:00:26.680Z,99514.06
2023-04-28T15:02:53.706Z,99513.34
2023-04-28T15:05:20.622Z,99511.28
2023-04-28T15:07:47.331Z,99515.37
2023-04-28T15:10:14.360Z,99517.05
2023-04-28T15:12:42.546Z,99516.73
2023-04-28T15:15:10.312Z,99517.45
2023-04-28T15:17:37.073Z,99516.07
2023-04-28T15:20:05.246Z,99514.45
2023-04-28T15:22:31.932Z,99515.00
2023-04-28T15:24:58.634Z,99518.92
2023-04-28T15:27:25.482Z,99519.63
2023-04-28T15:29:52.237Z,99519.84
2023-04-28T15:32:19.139Z,99522.63
2023-04-28T15:34:46.089Z,99521.75
2023-04-28T15:37:39.046Z,99527.15
2023-04-28T15:40:06.646Z,99530.07
2023-04-28T15:42:34.091Z,99529.72
2023-04-28T15:45:02.445Z,99532.61
2023-04-28T15:47:29.408Z,99533.36
2023-04-28T15:49:56.136Z,99532.06
2023-04-28T15:52:23.047Z,99533.08
2023-04-28T15:54:50.157Z,99539.23
2023-04-28T15:57:17.006Z,99538.67
2023-04-28T15:59:43.677Z,99539.45
2023-04-28T16:02:10.456Z,99545.13
2023-04-28T16:04:37.321Z,99543.17
2023-04-28T16:07:04.421Z,99545.52
2023-04-28T16:09:31.461Z,99551.14
2023-04-28T16:12:00.058Z,99553.90
2023-04-28T16:14:27.017Z,99559.72
2023-04-28T16:16:54.096Z,99564.21
2023-04-28T16:19:21.851Z,99562.41
2023-04-28T16:21:48.556Z,99562.95
2023-04-28T16:24:15.322Z,99566.24
2023-04-28T16:26:42.203Z,99566.29
2023-04-28T16:29:08.903Z,99569.65
2023-04-28T16:31:36.253Z,99573.11
2023-04-28T16:34:03.896Z,99567.89
2023-04-28T16:36:33.036Z,99569.39
2023-04-28T16:38:59.822Z,99569.25
2023-04-28T16:41:26.781Z,99573.94
2023-04-28T16:43:53.706Z,99574.23
2023-04-28T16:46:20.676Z,99576.89
2023-04-28T16:48:47.332Z,99578.43
2023-04-28T16:51:14.268Z,99579.56
2023-04-28T16:53:42.213Z,99584.84
2023-04-28T16:56:10.603Z,99590.09
2023-04-28T16:58:37.912Z,99590.20
2023-04-28T17:01:04.670Z,99587.77
2023-04-28T17:03:31.926Z,99589.77
2023-04-28T17:05:59.723Z,99594.64
2023-04-28T17:08:26.904Z,99597.88
2023-04-28T17:10:53.592Z,99600.11
2023-04-28T17:13:20.328Z,99603.77
2023-04-28T17:15:54.168Z,99606.50
2023-04-28T17:18:21.162Z,99609.06
2023-04-28T17:20:48.281Z,99610.71
2023-04-28T17:23:16.075Z,99615.35
2023-04-28T17:25:43.086Z,99618.52
2023-04-28T17:28:10.183Z,99622.35
2023-04-28T17:30:37.712Z,99625.11
2023-04-28T17:33:04.721Z,99623.00
2023-04-28T17:35:31.652Z,99622.85
2023-04-28T17:37:58.296Z,99626.29
2023-04-28T17:40:25.450Z,99623.08
2023-04-28T17:42:53.108Z,99627.77
2023-04-28T17:45:19.799Z,99630.66
2023-04-28T17:47:46.864Z,99633.39
2023-04-28T17:50:13.900Z,99633.19
2023-04-28T17:52:43.369Z,99638.27
2023-04-28T17:55:10.951Z,99639.52
2023-04-28T17:57:38.001Z,99639.20
2023-04-28T18:00:06.447Z,99642.41
2023-04-28T18:02:38.725Z,99646.98
2023-04-28T18:05:06.316Z,99653.10
2023-04-28T18:07:33.109Z,99652.81
2023-04-28T18:09:59.943Z,99654.47
2023-04-28T18:12:26.643Z,99658.64
2023-04-28T18:14:54.459Z,99660.58
2023-04-28T18:17:23.124Z,99663.75
2023-04-28T18:19:52.367Z,99660.71
2023-04-28T18:22:19.061Z,99660.73
2023-04-28T18:24:46.144Z,99655.59
2023-04-28T18:27:12.831Z,99656.85
2023-04-28T18:29:39.617Z,99659.55
2023-04-28T18:32:06.817Z,99657.96
2023-04-28T18:34:33.606Z,99659.41
2023-04-28T18:37:00.514Z,99661.09
2023-04-28T18:39:27.476Z,99663.80
2023-04-28T18:41:54.127Z,99667.86
2023-04-28T18:44:20.840Z,99665.64
2023-04-28T18:46:47.592Z,99667.73
2023-04-28T18:49:14.726Z,99667.32
2023-04-28T18:51:41.519Z,99671.41
2023-04-28T18:54:08.607Z,99670.14
2023-04-28T18:56:36.256Z,99663.66
2023-04-28T18:59:04.405Z,99664.40
2023-04-28T19:01:31.504Z,99666.39
2023-04-28T19:03:58.633Z,99669.39
2023-04-28T19:06:25.746Z,99669.34
2023-04-28T19:08:52.428Z,99670.75
2023-04-28T19:11:19.108Z,99672.86
2023-04-28T19:13:45.814Z,99677.66
2023-04-28T19:16:12.858Z,99682.99
2023-04-28T19:18:39.877Z,99681.41
2023-04-28T19:21:06.631Z,99680.69
2023-04-28T19:23:33.819Z,99682.32
2023-04-28T19:26:00.686Z,99691.84
2023-04-28T19:28:28.806Z,99690.42
2023-04-28T19:30:56.704Z,99691.48
2023-04-28T19:33:25.536Z,99692.71
2023-04-28T19:35:56.837Z,99698.96
2023-04-28T19:38:23.896Z,99699.13
2023-04-28T19:40:51.143Z,99702.35
2023-04-28T19:43:18.128Z,99699.18
2023-04-28T19:45:46.646Z,99700.61
2023-04-28T19:48:14.544Z,99700.09
2023-04-28T19:50:42.279Z,99701.71
2023-04-28T19:53:09.448Z,99701.52
2023-04-28T19:55:36.930Z,99701.17
2023-04-28T19:58:03.997Z,99699.96
2023-04-28T20:00:32.446Z,99702.52
2023-04-28T20:03:00.219Z,99704.73
2023-04-28T20:05:27.318Z,99707.25
2023-04-28T20:07:56.233Z,99708.01
2023-04-28T20:10:23.982Z,99713.23
2023-04-28T20:12:50.965Z,99714.84
2023-04-28T20:15:18.503Z,99714.50
2023-04-28T20:17:45.896Z,99710.98
2023-04-28T20:20:12.940Z,99712.08
2023-04-28T20:22:41.128Z,99711.29
2023-04-28T20:25:10.435Z,99718.63
2023-04-28T20:27:37.327Z,99715.10
2023-04-28T20:30:04.707Z,99722.79
2023-04-28T20:32:31.657Z,99728.45
2023-04-28T20:34:58.473Z,99730.93
2023-04-28T20:37:26.480Z,99733.37
2023-04-28T20:39:53.458Z,99734.44
2023-04-28T20:42:20.268Z,99730.91
2023-04-28T20:44:47.180Z,99730.41
2023-04-28T20:47:14.249Z,99734.92
2023-04-28T20:49:42.321Z,99739.09
2023-04-28T20:52:09.208Z,99742.75
2023-04-28T20:54:36.301Z,99750.27
2023-04-28T20:57:04.509Z,99751.55
2023-04-28T20:59:32.451Z,99748.77
2023-04-28T21:01:59.965Z,99746.55
2023-04-28T21:04:27.012Z,99746.85
2023-04-28T21:09:37.124Z,99750.38
2023-04-28T21:12:03.950Z,99748.94
2023-04-28T21:14:33.643Z,99747.25
2023-04-28T21:17:01.742Z,99745.17
2023-04-28T21:19:31.853Z,99747.27
2023-04-28T21:21:58.479Z,99747.01
2023-04-28T21:24:25.052Z,99751.88
2023-04-28T21:26:51.560Z,99747.50
2023-04-28T21:29:18.110Z,99747.77
2023-04-28T21:31:45.207Z,99748.77
2023-04-28T21:34:11.670Z,99749.77
2023-04-28T21:36:38.136Z,99747.94
2023-04-28T21:39:04.801Z,99748.19
2023-04-28T21:41:32.060Z,99746.64
2023-04-28T21:43:59.328Z,99749.52
2023-04-28T21:46:25.923Z,99746.82
2023-04-28T21:48:52.544Z,99736.36
2023-04-28T21:51:19.151Z,99736.76
2023-04-28T21:53:45.654Z,99742.13
2023-04-28T21:56:12.163Z,99749.98
2023-04-28T21:58:38.770Z,99746.12
2023-04-28T22:01:05.875Z,99747.77
2023-04-28T22:03:34.622Z,99746.41
2023-04-28T22:06:01.328Z,99745.23
2023-04-28T22:08:27.822Z,99743.56
2023-04-28T22:10:54.393Z,99745.80
2023-04-28T22:13:22.750Z,99741.94
2023-04-28T22:15:49.290Z,99741.63
2023-04-28T22:18:16.741Z,99736.35
2023-04-28T22:20:43.771Z,99736.04
2023-04-28T22:23:10.339Z,99733.98
2023-04-28T22:25:37.360Z,99736.71
2023-04-28T22:28:04.190Z,99739.00
2023-04-28T22:30:31.174Z,99737.89
2023-04-28T22:32:57.744Z,99740.52
2023-04-28T22:35:24.430Z,99741.35
2023-04-28T22:37:50.968Z,99739.99
2023-04-28T22:40:17.711Z,99740.33
2023-04-28T22:42:44.728Z,99742.66
2023-04-28T22:45:11.782Z,99738.23
2023-04-28T22:47:40.099Z,99738.53
2023-04-28T22:50:10.173Z,99738.06
2023-04-28T22:52:36.779Z,99731.26
2023-04-28T22:55:04.149Z,99730.42
2023-04-28T22:57:30.919Z,99733.46
2023-04-28T22:59:57.373Z,99733.89
2023-04-28T23:02:24.641Z,99732.85
2023-04-28T23:04:51.396Z,99731.06
2023-04-28T23:07:18.082Z,99725.77
2023-04-28T23:09:44.603Z,99722.97
2023-04-28T23:12:11.157Z,99719.28
2023-04-28T23:14:37.820Z,99716.88
2023-04-28T23:17:04.475Z,99720.32
2023-04-28T23:19:31.103Z,99716.30
2023-04-28T23:21:57.718Z,99716.17
2023-04-28T23:24:26.544Z,99720.53
2023-04-28T23:26:53.294Z,99719.93
2023-04-28T23:29:19.794Z,99720.77
2023-04-28T23:31:51.587Z,99720.00
2023-04-28T23:34:18.520Z,99721.13
2023-04-28T23:36:45.174Z,99721.21
2023-04-28T23:39:11.917Z,99724.98
2023-04-28T23:41:38.523Z,99728.73
2023-04-28T23:44:05.090Z,99728.60
2023-04-28T23:46:32.572Z,99729.89
2023-04-28T23:48:59.219Z,99725.66
2023-04-28T23:51:27.169Z,99723.71
2023-04-28T23:53:53.797Z,99726.68
2023-04-28T23:56:20.277Z,99722.21
2023-04-28T23:58:46.748Z,99723.25
